Time;durP1;ratioP1;P1;durP2;ratioP2;P2;SDS_P1;SDS_P2;PMS_P1;PMS_P2;Temp;Humidity;BMP_temperature;BMP_pressure;BME280_temperature;BME280_humidity;BME280_pressure;Samples;Min_cycle;Max_cycle;Signal;HPM_P1;HPM_P2
2022/05/01 00:00:32;;;;;;;1.50;1.10;;;10.40;95.70;;;;;;5000740;28;20550;-76
2022/05/01 00:02:59;;;;;;;1.50;1.10;;;10.40;96.00;;;;;;4987229;28;20493;-76
2022/05/01 00:05:26;;;;;;;1.47;1.10;;;10.40;95.80;;;;;;4993632;28;20823;-76
2022/05/01 00:07:53;;;;;;;1.50;1.20;;;10.40;95.60;;;;;;4990019;28;20563;-77
2022/05/01 00:10:20;;;;;;;1.47;1.10;;;10.40;95.70;;;;;;4988875;28;20469;-78
2022/05/01 00:12:48;;;;;;;1.47;1.10;;;10.30;96.10;;;;;;4992183;28;20488;-76
2022/05/01 00:15:14;;;;;;;1.50;1.10;;;10.30;96.40;;;;;;4995284;28;21128;-76
2022/05/01 00:17:41;;;;;;;1.50;1.10;;;10.30;96.10;;;;;;4989933;28;20468;-76
2022/05/01 00:20:10;;;;;;;1.43;1.10;;;10.30;96.50;;;;;;4989014;28;20488;-76
2022/05/01 00:22:36;;;;;;;1.50;1.20;;;10.30;96.10;;;;;;4987558;28;20802;-76
2022/05/01 00:25:04;;;;;;;1.50;1.20;;;10.30;96.20;;;;;;4992132;28;20476;-76
2022/05/01 00:27:31;;;;;;;1.47;1.10;;;10.20;96.30;;;;;;4989677;28;20485;-76
2022/05/01 00:29:59;;;;;;;1.50;1.20;;;10.20;96.60;;;;;;5000920;28;20459;-77
2022/05/01 00:36:25;;;;;;;1.43;1.00;;;10.20;97.30;;;;;;4993544;28;20468;-76
2022/05/01 00:37:58;;;;;;;1.43;1.10;;;10.20;97.50;;;;;;4989652;28;20946;-76
2022/05/01 00:40:24;;;;;;;1.47;1.10;;;10.10;97.30;;;;;;4985975;28;20472;-76
2022/05/01 00:42:51;;;;;;;1.47;1.10;;;10.10;97.50;;;;;;4988586;28;20496;-76
2022/05/01 00:45:19;;;;;;;1.50;1.10;;;10.10;98.10;;;;;;4999291;28;20534;-76
2022/05/01 00:47:46;;;;;;;1.50;1.10;;;10.10;97.70;;;;;;4993109;28;20496;-76
2022/05/01 00:50:13;;;;;;;1.50;1.10;;;10.10;97.80;;;;;;4990642;28;20849;-76
2022/05/01 00:52:39;;;;;;;1.50;1.20;;;10.10;98.10;;;;;;4988021;28;20553;-76
2022/05/01 00:55:07;;;;;;;1.50;1.30;;;10.00;97.80;;;;;;4988560;28;20476;-76
2022/05/01 00:57:34;;;;;;;1.50;1.10;;;10.00;97.30;;;;;;4977851;28;20507;-76
2022/05/01 01:00:00;;;;;;;1.50;1.20;;;10.00;97.80;;;;;;4988791;28;20475;-77
2022/05/01 01:02:29;;;;;;;1.50;1.10;;;9.90;97.40;;;;;;4987561;28;20460;-76
2022/05/01 01:04:55;;;;;;;1.50;1.10;;;9.80;98.20;;;;;;5004928;28;20848;-76
2022/05/01 01:07:23;;;;;;;1.43;1.10;;;9.80;98.20;;;;;;4996001;28;20484;-76
2022/05/01 01:09:50;;;;;;;1.50;1.10;;;9.70;98.20;;;;;;4998311;28;20474;-76
2022/05/01 01:15:08;;;;;;;1.50;1.20;;;9.60;98.20;;;;;;5011843;28;20455;-76
2022/05/01 01:17:37;;;;;;;1.50;1.23;;;9.60;98.20;;;;;;4994071;28;20461;-76
2022/05/01 01:20:09;;;;;;;1.50;1.10;;;9.50;98.20;;;;;;4988245;28;20460;-76
2022/05/01 01:22:38;;;;;;;1.50;1.20;;;9.40;98.20;;;;;;4979866;28;20585;-76
2022/05/01 01:25:06;;;;;;;1.50;1.10;;;9.40;98.20;;;;;;4999520;28;20460;-76
2022/05/01 01:27:33;;;;;;;1.50;1.30;;;9.30;98.20;;;;;;4998188;28;20480;-76
2022/05/01 01:32:55;;;;;;;1.50;1.30;;;9.20;98.20;;;;;;4928792;28;20563;-76
2022/05/01 01:35:25;;;;;;;1.50;1.20;;;9.20;98.20;;;;;;5009177;28;20456;-76
2022/05/01 01:37:54;;;;;;;1.50;1.20;;;9.20;98.20;;;;;;4995484;28;20457;-76
2022/05/01 01:40:23;;;;;;;1.50;1.10;;;9.10;98.20;;;;;;4992699;28;20979;-76
2022/05/01 01:42:51;;;;;;;1.50;1.20;;;9.10;98.20;;;;;;4981633;28;20493;-76
2022/05/01 01:45:18;;;;;;;1.50;1.20;;;9.10;98.20;;;;;;4992825;28;20471;-75
2022/05/01 01:47:49;;;;;;;1.50;1.17;;;9.00;98.20;;;;;;4981564;28;20489;-76
2022/05/01 01:50:17;;;;;;;1.50;1.17;;;9.00;98.20;;;;;;4987508;28;20461;-76
2022/05/01 01:52:46;;;;;;;1.50;1.20;;;9.00;98.20;;;;;;4990835;28;20480;-76
2022/05/01 01:55:15;;;;;;;1.50;1.20;;;8.90;98.20;;;;;;4991767;28;20472;-76
2022/05/01 01:57:41;;;;;;;1.50;1.13;;;8.90;98.20;;;;;;4991094;28;20464;-76
2022/05/01 02:00:09;;;;;;;1.50;1.10;;;8.90;98.20;;;;;;4996997;28;20972;-76
2022/05/01 02:02:36;;;;;;;1.50;1.20;;;8.80;98.20;;;;;;4990639;28;20834;-75
2022/05/01 02:05:03;;;;;;;1.50;1.20;;;8.80;98.20;;;;;;4991696;28;20953;-76
2022/05/01 02:07:31;;;;;;;1.50;1.10;;;8.80;98.20;;;;;;4980188;28;20480;-76
2022/05/01 02:09:57;;;;;;;1.47;1.20;;;8.70;98.20;;;;;;4990942;28;20473;-76
2022/05/01 02:12:25;;;;;;;1.50;1.20;;;8.70;98.20;;;;;;4990292;28;20476;-76
2022/05/01 02:14:52;;;;;;;1.80;1.50;;;8.70;98.20;;;;;;5002609;28;20904;-76
2022/05/01 02:17:20;;;;;;;1.50;1.20;;;8.70;98.20;;;;;;4998577;28;20465;-76
2022/05/01 02:19:47;;;;;;;1.50;1.30;;;8.70;98.20;;;;;;4991540;28;20527;-76
2022/05/01 02:22:15;;;;;;;1.60;1.50;;;8.70;98.20;;;;;;4989751;28;20947;-76
2022/05/01 02:24:42;;;;;;;1.50;1.20;;;8.70;98.20;;;;;;4990820;28;20473;-76
2022/05/01 02:27:09;;;;;;;1.50;1.20;;;8.70;98.20;;;;;;4991142;28;20469;-76
2022/05/01 02:29:37;;;;;;;1.50;1.20;;;8.70;98.20;;;;;;4985796;28;20860;-76
2022/05/01 02:32:05;;;;;;;1.50;1.20;;;8.70;98.20;;;;;;4988632;28;20465;-75
2022/05/01 02:34:32;;;;;;;1.50;1.20;;;8.70;98.20;;;;;;4991126;28;20575;-77
2022/05/01 02:36:59;;;;;;;1.50;1.20;;;8.70;98.20;;;;;;4979395;28;20523;-75
2022/05/01 02:39:26;;;;;;;1.50;1.20;;;8.80;98.20;;;;;;4994096;28;20547;-76
2022/05/01 02:41:53;;;;;;;1.50;1.10;;;8.80;98.20;;;;;;4988735;28;20489;-76
2022/05/01 02:44:19;;;;;;;1.50;1.20;;;8.80;98.20;;;;;;4988487;28;20778;-76
2022/05/01 02:46:48;;;;;;;1.50;1.10;;;8.70;98.20;;;;;;4989124;28;20464;-76
2022/05/01 02:49:15;;;;;;;1.50;1.30;;;8.70;98.20;;;;;;4990563;28;20852;-77
2022/05/01 02:51:41;;;;;;;1.50;1.20;;;8.70;98.20;;;;;;4988613;28;20543;-76
2022/05/01 02:54:08;;;;;;;1.50;1.30;;;8.70;98.20;;;;;;4994365;28;20481;-76
2022/05/01 02:56:35;;;;;;;1.50;1.10;;;8.70;98.20;;;;;;5003395;28;20466;-76
2022/05/01 02:59:02;;;;;;;1.47;1.10;;;8.80;98.20;;;;;;4990607;28;20864;-76
2022/05/01 03:01:29;;;;;;;1.50;1.20;;;8.80;98.20;;;;;;4978255;28;20468;-76
2022/05/01 03:03:57;;;;;;;1.50;1.10;;;8.80;98.20;;;;;;4992904;28;20996;-78
2022/05/01 03:06:24;;;;;;;1.50;1.20;;;8.80;98.20;;;;;;4994319;28;20484;-76
2022/05/01 03:08:50;;;;;;;1.50;1.20;;;8.80;98.20;;;;;;4989256;28;20492;-76
2022/05/01 03:11:18;;;;;;;1.50;1.10;;;8.90;98.20;;;;;;4988676;28;20472;-76
2022/05/01 03:13:45;;;;;;;1.50;1.20;;;8.90;98.20;;;;;;5001475;28;20480;-76
2022/05/01 03:16:12;;;;;;;1.50;1.20;;;8.90;98.20;;;;;;5005831;28;20465;-76
2022/05/01 03:24:09;;;;;;;1.50;1.20;;;9.00;98.20;;;;;;4988663;28;20878;-76
2022/05/01 03:26:36;;;;;;;1.50;1.20;;;9.00;98.20;;;;;;4990188;28;20465;-76
2022/05/01 03:29:03;;;;;;;1.50;1.20;;;9.10;98.20;;;;;;4989884;28;20497;-76
2022/05/01 03:31:30;;;;;;;1.50;1.17;;;9.10;98.20;;;;;;4988167;28;20465;-76
2022/05/01 03:33:56;;;;;;;1.50;1.10;;;9.10;98.20;;;;;;4988421;28;20494;-76
2022/05/01 03:36:26;;;;;;;1.47;1.10;;;9.20;98.20;;;;;;4989037;28;20476;-76
2022/05/01 03:38:53;;;;;;;1.50;1.10;;;9.20;98.20;;;;;;4988796;28;20469;-76
2022/05/01 03:41:19;;;;;;;1.47;1.20;;;9.20;98.20;;;;;;4977537;28;20485;-76
2022/05/01 03:43:46;;;;;;;1.50;1.20;;;9.20;98.20;;;;;;4989738;28;20484;-76
2022/05/01 03:46:13;;;;;;;1.50;1.20;;;9.20;98.20;;;;;;5003669;28;20970;-77
2022/05/01 03:48:40;;;;;;;1.50;1.20;;;9.30;98.20;;;;;;4987955;28;20964;-76
2022/05/01 03:51:07;;;;;;;1.50;1.10;;;9.30;98.20;;;;;;4987424;28;20478;-76
2022/05/01 03:53:36;;;;;;;1.50;1.20;;;9.30;98.20;;;;;;4997774;28;20480;-76
2022/05/01 03:56:02;;;;;;;1.50;1.10;;;9.30;98.20;;;;;;5006084;28;20494;-76
2022/05/01 03:58:29;;;;;;;1.50;1.20;;;9.40;98.20;;;;;;4988009;28;20465;-75
2022/05/01 04:00:56;;;;;;;1.50;1.20;;;9.40;98.20;;;;;;4977667;28;20460;-77
2022/05/01 04:03:23;;;;;;;1.50;1.20;;;9.40;98.20;;;;;;5014800;23;20516;-77
2022/05/01 04:05:50;;;;;;;1.50;1.17;;;9.40;98.20;;;;;;5039708;28;20454;-78
2022/05/01 04:08:18;;;;;;;1.50;1.17;;;9.50;98.20;;;;;;5043920;28;20563;-80
2022/05/01 04:10:46;;;;;;;1.50;1.13;;;9.50;98.20;;;;;;5057251;28;20462;-76
2022/05/01 04:13:14;;;;;;;1.50;1.30;;;9.50;98.20;;;;;;5053279;28;20804;-79
2022/05/01 04:15:42;;;;;;;1.50;1.20;;;9.50;98.20;;;;;;5034141;28;20535;-79
2022/05/01 04:18:10;;;;;;;1.50;1.20;;;9.60;98.20;;;;;;5030269;28;20644;-78
2022/05/01 04:20:38;;;;;;;1.50;1.17;;;9.60;98.20;;;;;;5031024;28;20963;-78
2022/05/01 04:23:06;;;;;;;1.50;1.10;;;9.60;98.20;;;;;;5031010;28;20459;-77
2022/05/01 04:25:33;;;;;;;1.50;1.20;;;9.70;98.20;;;;;;5031107;28;21003;-80
2022/05/01 04:28:03;;;;;;;1.50;1.40;;;9.70;98.20;;;;;;5035579;28;21036;-78
2022/05/01 04:30:31;;;;;;;1.47;1.13;;;9.70;98.20;;;;;;5035538;28;20517;-80
2022/05/01 04:32:59;;;;;;;1.43;1.17;;;9.70;98.20;;;;;;5035986;28;20578;-79
2022/05/01 04:35:28;;;;;;;1.43;1.17;;;9.70;98.20;;;;;;5036803;28;20479;-77
2022/05/01 04:37:59;;;;;;;1.50;1.17;;;9.80;98.20;;;;;;5035815;28;20517;-77
2022/05/01 04:40:28;;;;;;;1.47;1.10;;;9.80;98.20;;;;;;5036064;28;20493;-76
2022/05/01 04:43:02;;;;;;;1.50;1.30;;;9.80;98.20;;;;;;5025170;28;20860;-78
2022/05/01 04:45:30;;;;;;;1.50;1.10;;;9.90;98.20;;;;;;5034100;28;20497;-76
2022/05/01 04:47:58;;;;;;;1.50;1.20;;;9.90;98.20;;;;;;5031010;28;20472;-77
2022/05/01 04:50:26;;;;;;;1.50;1.10;;;9.90;98.20;;;;;;5030644;28;20459;-79
2022/05/01 04:52:54;;;;;;;1.50;1.10;;;10.00;98.20;;;;;;5031016;28;20820;-79
2022/05/01 04:55:21;;;;;;;1.50;1.20;;;10.00;98.20;;;;;;5035125;28;20574;-79
2022/05/01 04:57:49;;;;;;;1.47;1.20;;;10.10;98.20;;;;;;5030834;28;20752;-77
2022/05/01 05:00:19;;;;;;;1.43;1.10;;;10.10;98.20;;;;;;5030105;28;20528;-81
2022/05/01 05:02:49;;;;;;;1.50;1.10;;;10.20;98.20;;;;;;5028504;28;20517;-77
2022/05/01 05:05:18;;;;;;;1.50;1.20;;;10.30;98.20;;;;;;5036014;28;20532;-78
2022/05/01 05:07:45;;;;;;;1.50;1.30;;;10.30;98.20;;;;;;5034664;28;20462;-80
2022/05/01 05:10:11;;;;;;;1.47;1.00;;;10.40;98.20;;;;;;5035062;28;21034;-79
2022/05/01 05:12:42;;;;;;;1.50;1.20;;;10.50;98.20;;;;;;5034025;28;20464;-78
2022/05/01 05:15:11;;;;;;;1.50;1.10;;;10.60;98.20;;;;;;5032979;28;20498;-79
2022/05/01 05:17:40;;;;;;;1.50;1.10;;;10.70;98.20;;;;;;5019910;28;20581;-77
2022/05/01 05:20:09;;;;;;;1.50;1.13;;;10.80;98.20;;;;;;5027725;28;20455;-79
2022/05/01 05:22:36;;;;;;;1.50;1.10;;;10.90;98.20;;;;;;5018119;28;20946;-79
2022/05/01 05:25:05;;;;;;;1.50;1.10;;;11.00;98.20;;;;;;5029615;28;20487;-78
2022/05/01 05:27:32;;;;;;;1.50;1.10;;;11.10;98.20;;;;;;5033535;28;20570;-80
2022/05/01 05:29:59;;;;;;;1.47;1.10;;;11.20;98.20;;;;;;5035835;28;20867;-78
2022/05/01 05:32:26;;;;;;;1.50;1.10;;;11.30;98.20;;;;;;5032158;28;20577;-77
2022/05/01 05:34:56;;;;;;;1.50;1.10;;;11.30;98.20;;;;;;5038866;28;20487;-78
2022/05/01 05:37:23;;;;;;;1.50;1.10;;;11.40;98.20;;;;;;5029414;28;20463;-79
2022/05/01 05:39:50;;;;;;;1.50;1.00;;;11.50;98.20;;;;;;5035328;28;20469;-78
2022/05/01 05:42:18;;;;;;;1.50;1.07;;;11.60;98.20;;;;;;5034054;28;20467;-79
2022/05/01 05:44:45;;;;;;;1.50;1.10;;;11.80;98.20;;;;;;5034800;28;20909;-78
2022/05/01 05:47:12;;;;;;;1.50;1.10;;;12.10;98.20;;;;;;5035484;28;20462;-77
2022/05/01 05:49:39;;;;;;;1.50;1.07;;;12.30;97.40;;;;;;5030695;28;20741;-80
2022/05/01 05:52:08;;;;;;;1.50;1.10;;;12.50;96.00;;;;;;5023621;28;20513;-81
2022/05/01 05:54:35;;;;;;;1.50;1.10;;;12.60;95.60;;;;;;5040042;28;20486;-79
2022/05/01 05:57:02;;;;;;;1.50;1.10;;;12.70;94.10;;;;;;5036109;28;20550;-79
2022/05/01 05:59:29;;;;;;;1.50;1.10;;;12.80;93.50;;;;;;5037928;28;20959;-81
2022/05/01 06:01:56;;;;;;;1.50;1.10;;;13.00;92.70;;;;;;5037542;28;20467;-79
2022/05/01 06:04:23;;;;;;;1.50;1.10;;;13.10;91.80;;;;;;5034226;28;20522;-81
2022/05/01 06:06:49;;;;;;;1.50;1.00;;;13.30;90.60;;;;;;5038901;28;20458;-82
2022/05/01 06:09:18;;;;;;;1.50;1.00;;;13.40;89.60;;;;;;5037944;28;20513;-80
2022/05/01 06:11:45;;;;;;;1.50;1.00;;;13.50;89.70;;;;;;5034391;28;20482;-79
2022/05/01 06:14:11;;;;;;;1.50;1.10;;;13.70;89.30;;;;;;5044034;28;20494;-77
2022/05/01 06:16:38;;;;;;;1.50;1.00;;;14.00;89.30;;;;;;5035626;28;20463;-78
2022/05/01 06:19:07;;;;;;;1.50;1.00;;;14.30;88.50;;;;;;5028103;28;20460;-78
2022/05/01 06:21:33;;;;;;;1.47;1.00;;;14.40;87.10;;;;;;5032941;28;20465;-77
2022/05/01 06:24:00;;;;;;;1.50;1.00;;;14.50;87.00;;;;;;5035325;28;20489;-80
2022/05/01 06:26:29;;;;;;;1.50;1.10;;;14.50;86.60;;;;;;5034729;28;20499;-82
2022/05/01 06:28:55;;;;;;;1.50;1.10;;;14.50;86.10;;;;;;5037263;28;20491;-78
2022/05/01 06:31:22;;;;;;;1.50;1.00;;;14.40;85.90;;;;;;5031779;28;21033;-80
2022/05/01 06:33:49;;;;;;;1.43;1.00;;;14.20;86.20;;;;;;5041519;28;20487;-81
2022/05/01 06:36:17;;;;;;;1.47;1.00;;;14.10;86.60;;;;;;5033857;28;20464;-77
2022/05/01 06:38:44;;;;;;;1.50;1.00;;;14.00;87.10;;;;;;5044660;28;20466;-78
2022/05/01 06:41:11;;;;;;;1.50;1.00;;;14.10;87.00;;;;;;5036407;28;20460;-80
2022/05/01 06:43:40;;;;;;;1.47;1.00;;;14.20;87.70;;;;;;5029626;28;20487;-78
2022/05/01 06:46:07;;;;;;;1.50;1.10;;;14.20;86.70;;;;;;5028256;28;20472;-79
2022/05/01 06:48:35;;;;;;;1.47;0.90;;;14.20;86.80;;;;;;5045863;28;20864;-78
2022/05/01 06:51:02;;;;;;;1.47;1.00;;;14.30;86.70;;;;;;5030094;28;20962;-79
2022/05/01 06:53:28;;;;;;;1.50;1.00;;;14.40;85.90;;;;;;5038279;28;20451;-77
2022/05/01 06:55:56;;;;;;;1.43;0.90;;;14.50;86.30;;;;;;5028349;28;20466;-81
2022/05/01 06:58:23;;;;;;;1.50;1.00;;;14.70;85.40;;;;;;5036635;28;20858;-78
2022/05/01 07:00:54;;;;;;;1.50;1.00;;;14.80;86.00;;;;;;5025844;28;20465;-81
2022/05/01 07:03:22;;;;;;;1.50;1.00;;;15.00;85.00;;;;;;5012164;28;20470;-77
2022/05/01 07:05:50;;;;;;;1.50;1.00;;;15.10;84.80;;;;;;5032006;28;20832;-82
2022/05/01 07:08:18;;;;;;;5.50;1.77;;;15.30;84.60;;;;;;5026342;28;20494;-79
2022/05/01 07:10:44;;;;;;;1.50;1.00;;;15.60;84.00;;;;;;5029019;28;20590;-80
2022/05/01 07:13:12;;;;;;;1.47;0.90;;;15.80;83.00;;;;;;5024248;28;20493;-79
2022/05/01 07:15:38;;;;;;;1.50;0.90;;;16.10;82.80;;;;;;5034028;28;20567;-80
2022/05/01 07:18:08;;;;;;;1.50;1.00;;;16.30;82.50;;;;;;5028986;28;20463;-81
2022/05/01 07:20:35;;;;;;;1.50;0.90;;;16.50;81.90;;;;;;5032098;28;20460;-81
2022/05/01 07:23:03;;;;;;;1.47;0.90;;;16.70;81.10;;;;;;5031301;28;20542;-78
2022/05/01 07:25:30;;;;;;;1.50;0.90;;;16.70;80.30;;;;;;5033247;28;20498;-82
2022/05/01 07:27:57;;;;;;;1.50;0.90;;;16.60;80.50;;;;;;5035020;28;20501;-80
2022/05/01 07:30:24;;;;;;;1.50;1.00;;;16.50;81.00;;;;;;5035490;28;20490;-77
2022/05/01 07:32:51;;;;;;;1.50;1.00;;;16.60;81.30;;;;;;5036846;28;20482;-77
2022/05/01 07:35:21;;;;;;;1.47;0.90;;;16.70;80.40;;;;;;5032425;28;20483;-78
2022/05/01 07:37:48;;;;;;;1.50;0.97;;;16.60;80.40;;;;;;5036675;28;20486;-75
2022/05/01 07:40:15;;;;;;;1.50;0.90;;;16.90;80.60;;;;;;5030775;28;20467;-79
2022/05/01 07:42:42;;;;;;;1.43;0.90;;;17.00;80.30;;;;;;5031606;28;20521;-77
2022/05/01 07:45:10;;;;;;;1.50;0.93;;;17.10;79.00;;;;;;5031159;28;20486;-82
2022/05/01 07:47:37;;;;;;;1.50;0.90;;;17.20;79.20;;;;;;5031632;28;20467;-77
2022/05/01 07:50:06;;;;;;;1.50;0.90;;;17.30;79.20;;;;;;5030054;28;20509;-80
2022/05/01 07:52:35;;;;;;;2.43;1.77;;;17.20;80.10;;;;;;5029982;28;20549;-78
2022/05/01 07:55:04;;;;;;;1.43;0.90;;;17.30;79.40;;;;;;5032140;28;20592;-78
2022/05/01 07:57:32;;;;;;;1.43;1.00;;;17.40;79.90;;;;;;5025613;28;20459;-78
2022/05/01 07:59:59;;;;;;;1.47;0.93;;;17.40;78.70;;;;;;5032009;28;20460;-79
2022/05/01 08:02:34;;;;;;;1.47;0.90;;;17.40;79.50;;;;;;5028515;28;20540;-77
2022/05/01 08:05:00;;;;;;;1.47;0.93;;;17.50;79.00;;;;;;5031931;28;20519;-78
2022/05/01 08:07:27;;;;;;;2.53;1.40;;;17.60;78.40;;;;;;5031601;28;20467;-80
2022/05/01 08:09:56;;;;;;;1.50;0.90;;;17.70;78.00;;;;;;5030969;28;20228;-77
2022/05/01 08:12:23;;;;;;;1.43;0.90;;;17.60;78.50;;;;;;5027276;28;20554;-77
2022/05/01 08:14:50;;;;;;;1.47;0.90;;;17.80;79.10;;;;;;5026357;28;20483;-79
2022/05/01 08:17:17;;;;;;;1.50;1.00;;;17.80;77.90;;;;;;5031603;28;20460;-77
2022/05/01 08:22:28;;;;;;;1.47;1.00;;;18.10;78.00;;;;;;5011831;28;20578;-81
2022/05/01 08:24:57;;;;;;;1.50;0.90;;;18.30;76.40;;;;;;5027520;28;20896;-77
2022/05/01 08:27:23;;;;;;;1.50;0.90;;;18.40;77.40;;;;;;5030735;28;20936;-78
2022/05/01 08:29:51;;;;;;;1.50;1.00;;;18.60;75.60;;;;;;5035093;28;20493;-77
2022/05/01 08:32:18;;;;;;;1.47;0.90;;;18.80;76.00;;;;;;5030302;28;20502;-80
2022/05/01 08:34:47;;;;;;;1.50;0.97;;;18.80;74.80;;;;;;5020363;28;20868;-83
2022/05/01 08:37:14;;;;;;;1.47;0.90;;;18.60;74.50;;;;;;5018285;28;20472;-76
2022/05/01 08:39:41;;;;;;;1.50;0.90;;;18.60;75.00;;;;;;5022444;28;20543;-77
2022/05/01 08:42:09;;;;;;;1.43;0.90;;;18.70;76.10;;;;;;5029705;28;20495;-78
2022/05/01 08:44:38;;;;;;;1.47;0.90;;;18.80;74.90;;;;;;5029523;28;20578;-77
2022/05/01 08:47:16;;;;;;;1.60;1.20;;;18.90;72.50;;;;;;5029648;28;20463;-79
2022/05/01 08:49:45;;;;;;;1.43;0.90;;;18.90;71.90;;;;;;5024436;28;20487;-76
2022/05/01 08:52:14;;;;;;;1.50;0.90;;;18.80;73.20;;;;;;5025929;28;20463;-80
2022/05/01 08:54:41;;;;;;;1.50;0.90;;;18.80;72.30;;;;;;5027259;28;20493;-78
2022/05/01 08:57:09;;;;;;;1.50;1.00;;;18.90;72.20;;;;;;5024771;28;20584;-78
2022/05/01 08:59:37;;;;;;;1.50;0.90;;;18.90;72.30;;;;;;5031023;28;20923;-77
2022/05/01 09:02:04;;;;;;;1.47;0.90;;;18.70;71.90;;;;;;5029026;28;20683;-77
2022/05/01 09:04:31;;;;;;;1.50;0.90;;;18.80;73.10;;;;;;5025873;28;20874;-78
2022/05/01 09:07:01;;;;;;;1.47;0.90;;;18.80;73.10;;;;;;5028216;28;20566;-79
2022/05/01 09:09:28;;;;;;;1.50;0.90;;;18.80;73.40;;;;;;5030333;28;20542;-80
2022/05/01 09:14:46;;;;;;;1.50;0.90;;;19.00;72.70;;;;;;5015503;28;20517;-81
2022/05/01 09:17:18;;;;;;;1.47;0.90;;;18.90;72.20;;;;;;5027508;28;20525;-79
2022/05/01 09:19:48;;;;;;;1.97;1.77;;;18.90;70.50;;;;;;5023240;28;20466;-76
2022/05/01 09:22:16;;;;;;;1.47;0.90;;;18.80;68.50;;;;;;5028561;28;20558;-77
2022/05/01 09:24:43;;;;;;;1.50;0.90;;;18.70;69.30;;;;;;5030095;28;20490;-80
2022/05/01 09:27:25;;;;;;;1.50;0.90;;;18.70;70.50;;;;;;5027388;28;21024;-81
2022/05/01 09:32:46;;;;;;;1.43;0.90;;;18.70;72.10;;;;;;5064974;27;20577;-76
2022/05/01 09:35:16;;;;;;;1.60;1.23;;;18.70;74.00;;;;;;5066415;28;20901;-81
2022/05/01 09:37:44;;;;;;;1.43;0.90;;;18.80;73.40;;;;;;5062477;28;20553;-76
2022/05/01 09:40:13;;;;;;;1.47;0.90;;;18.80;71.60;;;;;;5059659;28;20466;-80
2022/05/01 09:42:41;;;;;;;1.50;1.00;;;18.80;72.20;;;;;;5058179;28;20463;-81
2022/05/01 09:45:11;;;;;;;1.43;0.90;;;18.60;71.50;;;;;;5065000;28;20482;-82
2022/05/01 09:47:40;;;;;;;1.50;0.90;;;18.60;71.90;;;;;;5060887;28;21132;-79
2022/05/01 09:50:10;;;;;;;1.47;0.90;;;18.50;71.90;;;;;;5060177;28;20469;-78
2022/05/01 09:52:58;;;;;;;1.50;0.90;;;18.60;71.20;;;;;;5063259;28;21079;-79
2022/05/01 09:55:25;;;;;;;1.43;0.90;;;18.40;71.00;;;;;;5061045;28;21048;-79
2022/05/01 09:58:03;;;;;;;1.43;0.90;;;18.40;71.30;;;;;;5061997;28;20457;-78
2022/05/01 10:00:39;;;;;;;2.80;1.67;;;18.20;72.50;;;;;;5061849;28;20500;-79
2022/05/01 10:03:24;;;;;;;1.40;0.90;;;18.30;73.10;;;;;;5063624;28;20453;-80
2022/05/01 10:05:53;;;;;;;1.50;0.90;;;18.40;71.90;;;;;;5064937;28;20538;-79
2022/05/01 10:08:21;;;;;;;1.50;1.10;;;18.50;71.60;;;;;;5061483;28;20468;-78
2022/05/01 10:10:51;;;;;;;1.40;0.90;;;18.70;72.40;;;;;;5057842;27;20512;-79
2022/05/01 10:13:18;;;;;;;1.50;0.90;;;18.80;71.60;;;;;;5071178;28;20508;-77
2022/05/01 10:15:46;;;;;;;1.70;1.53;;;18.70;71.40;;;;;;5063673;28;20479;-76
2022/05/01 10:18:15;;;;;;;1.47;0.90;;;18.80;71.10;;;;;;5063391;28;20505;-77
2022/05/01 10:20:43;;;;;;;1.50;1.10;;;18.70;70.60;;;;;;5062546;28;20515;-81
2022/05/01 10:23:13;;;;;;;1.80;1.50;;;18.60;70.80;;;;;;5063719;28;20488;-78
2022/05/01 10:25:47;;;;;;;1.50;0.90;;;18.60;69.70;;;;;;5064765;28;20933;-82
2022/05/01 10:28:26;;;;;;;1.43;0.90;;;18.50;71.00;;;;;;5064264;28;20457;-80
2022/05/01 10:34:09;;;;;;;1.47;0.90;;;18.60;70.20;;;;;;5062373;28;21016;-81
2022/05/01 10:36:58;;;;;;;1.40;0.90;;;18.60;70.70;;;;;;5060413;28;20472;-77
2022/05/01 10:39:40;;;;;;;1.50;0.90;;;18.60;69.90;;;;;;5064586;28;20926;-78
2022/05/01 10:42:08;;;;;;;1.40;0.90;;;18.50;70.20;;;;;;5060158;28;20962;-81
2022/05/01 10:44:36;;;;;;;1.40;0.90;;;18.50;70.30;;;;;;5046009;28;20584;-76
2022/05/01 10:47:13;;;;;;;1.50;1.00;;;18.50;70.30;;;;;;5043960;28;20795;-76
2022/05/01 10:49:44;;;;;;;1.93;1.73;;;18.50;69.90;;;;;;5043642;28;20496;-76
2022/05/01 10:52:17;;;;;;;1.40;0.90;;;18.40;68.70;;;;;;5043388;28;20920;-76
2022/05/01 10:54:56;;;;;;;1.50;1.00;;;18.30;70.40;;;;;;5040980;28;20534;-75
2022/05/01 10:57:24;;;;;;;1.40;0.90;;;18.30;69.90;;;;;;5044382;28;20556;-75
2022/05/01 11:00:03;;;;;;;1.47;0.90;;;18.20;69.80;;;;;;5042560;28;20478;-76
2022/05/01 11:02:35;;;;;;;1.40;0.90;;;18.30;70.50;;;;;;5043242;28;20454;-76
2022/05/01 11:05:03;;;;;;;1.47;0.90;;;18.30;69.90;;;;;;5042088;28;20811;-76
2022/05/01 11:07:31;;;;;;;1.50;1.00;;;18.20;70.00;;;;;;5042969;28;20548;-76
2022/05/01 11:10:01;;;;;;;1.50;0.90;;;18.30;70.70;;;;;;5040759;28;20458;-76
2022/05/01 11:12:30;;;;;;;1.47;0.90;;;18.40;70.70;;;;;;5046814;28;20969;-75
2022/05/01 11:14:59;;;;;;;1.47;0.90;;;18.50;70.40;;;;;;5045757;28;20978;-77
2022/05/01 11:17:53;;;;;;;1.43;0.90;;;18.80;69.90;;;;;;5039637;28;20477;-76
2022/05/01 11:20:34;;;;;;;1.40;0.90;;;19.00;70.00;;;;;;5035493;28;20590;-76
2022/05/01 11:23:27;;;;;;;1.43;0.90;;;19.20;69.00;;;;;;5041224;28;20465;-77
2022/05/01 11:26:13;;;;;;;1.50;1.00;;;19.50;69.40;;;;;;5043645;28;20965;-76
2022/05/01 11:29:09;;;;;;;1.50;1.07;;;19.80;68.50;;;;;;5040201;28;20593;-76
2022/05/01 11:31:51;;;;;;;1.47;0.90;;;20.20;68.10;;;;;;5042217;28;20497;-76
2022/05/01 11:34:50;;;;;;;1.47;0.87;;;20.50;66.20;;;;;;5039748;28;20989;-76
2022/05/01 11:37:18;;;;;;;1.43;0.90;;;20.70;66.00;;;;;;5031942;28;20467;-77
2022/05/01 11:40:20;;;;;;;1.60;1.27;;;20.80;64.60;;;;;;5043320;28;20469;-77
2022/05/01 11:42:48;;;;;;;1.43;0.90;;;21.10;67.00;;;;;;5039708;28;21048;-80
2022/05/01 11:45:18;;;;;;;1.47;0.90;;;21.30;64.20;;;;;;5043666;28;20855;-78
2022/05/01 11:47:49;;;;;;;1.43;0.87;;;21.40;65.60;;;;;;5045496;28;20573;-81
2022/05/01 11:50:21;;;;;;;1.47;0.90;;;21.40;64.50;;;;;;5042654;28;20521;-76
2022/05/01 11:52:54;;;;;;;1.50;0.90;;;21.60;64.00;;;;;;5038022;28;20519;-77
2022/05/01 12:02:24;;;;;;;1.47;0.90;;;21.40;63.10;;;;;;5045441;28;20570;-78
2022/05/01 12:03:40;;;;;;;1.50;0.90;;;21.40;64.40;;;;;;5044841;28;20493;-78
2022/05/01 12:06:08;;;;;;;1.40;0.80;;;21.50;63.10;;;;;;5047137;28;20466;-79
2022/05/01 12:08:46;;;;;;;1.47;0.90;;;21.60;63.60;;;;;;5048349;28;20579;-78
2022/05/01 12:11:27;;;;;;;1.50;0.90;;;21.60;63.60;;;;;;5049748;28;20509;-77
2022/05/01 12:14:06;;;;;;;1.43;0.87;;;21.70;63.60;;;;;;5050885;28;20509;-78
2022/05/01 12:16:34;;;;;;;1.50;1.00;;;21.80;63.80;;;;;;5051462;28;21058;-78
2022/05/01 12:19:01;;;;;;;1.73;1.20;;;22.00;64.80;;;;;;5043084;28;20472;-77
2022/05/01 12:21:32;;;;;;;1.50;0.90;;;22.00;64.20;;;;;;5044382;28;20454;-78
2022/05/01 12:24:03;;;;;;;1.47;0.90;;;22.00;64.20;;;;;;5043318;28;21030;-79
2022/05/01 12:26:32;;;;;;;1.47;0.87;;;22.10;63.60;;;;;;5047399;28;20463;-82
2022/05/01 12:28:59;;;;;;;1.43;0.80;;;21.90;62.70;;;;;;5040571;28;20492;-79
2022/05/01 12:31:29;;;;;;;1.50;0.90;;;21.60;63.80;;;;;;5042395;28;20502;-80
2022/05/01 12:33:57;;;;;;;1.47;0.93;;;21.50;64.90;;;;;;5039083;28;20821;-84
2022/05/01 12:36:25;;;;;;;1.47;0.90;;;21.50;64.60;;;;;;5041291;28;20463;-80
2022/05/01 12:39:01;;;;;;;1.47;0.90;;;21.50;65.80;;;;;;5046712;28;20689;-80
2022/05/01 12:44:13;;;;;;;1.47;0.90;;;21.70;64.60;;;;;;5040160;28;20470;-80
2022/05/01 12:46:52;;;;;;;1.47;0.90;;;21.50;64.90;;;;;;5045880;28;20466;-76
2022/05/01 12:49:25;;;;;;;1.50;0.90;;;21.30;64.90;;;;;;5039151;28;20915;-79
2022/05/01 12:51:53;;;;;;;1.47;1.00;;;21.10;65.60;;;;;;5044079;28;20500;-81
2022/05/01 12:54:19;;;;;;;1.50;0.90;;;20.90;64.90;;;;;;5042639;28;20490;-83
2022/05/01 12:56:47;;;;;;;1.50;1.00;;;20.80;65.90;;;;;;5042032;28;20577;-78
2022/05/01 12:59:26;;;;;;;1.50;0.90;;;20.80;65.50;;;;;;5044613;28;20462;-76
2022/05/01 13:01:56;;;;;;;1.47;0.90;;;20.70;65.70;;;;;;5044160;28;20490;-78
2022/05/01 13:04:25;;;;;;;2.43;2.03;;;20.60;65.80;;;;;;5044352;28;21073;-81
2022/05/01 13:06:53;;;;;;;1.40;0.90;;;20.60;66.80;;;;;;5048264;28;20466;-80
2022/05/01 13:09:20;;;;;;;1.43;0.90;;;20.70;64.70;;;;;;5043983;28;20930;-80
2022/05/01 13:12:06;;;;;;;1.43;0.90;;;20.80;65.90;;;;;;5044781;28;21187;-79
2022/05/01 13:14:34;;;;;;;1.70;1.60;;;21.00;65.90;;;;;;5043991;28;20482;-81
2022/05/01 13:17:13;;;;;;;1.47;0.90;;;21.10;66.30;;;;;;5045845;28;21128;-79
2022/05/01 13:19:41;;;;;;;1.43;0.80;;;21.30;65.50;;;;;;5044572;28;20551;-78
2022/05/01 13:22:09;;;;;;;1.43;0.90;;;21.50;64.90;;;;;;5045818;28;20570;-81
2022/05/01 13:24:40;;;;;;;1.47;0.87;;;21.60;64.30;;;;;;5043741;28;20489;-79
2022/05/01 13:27:10;;;;;;;1.47;0.90;;;21.50;63.60;;;;;;5044526;28;20459;-78
2022/05/01 13:29:40;;;;;;;1.50;1.00;;;21.60;65.60;;;;;;5047923;28;20450;-80
2022/05/01 13:32:09;;;;;;;1.50;0.90;;;21.70;63.90;;;;;;5044735;28;20577;-82
2022/05/01 13:34:41;;;;;;;1.40;0.90;;;21.60;63.30;;;;;;5046940;28;20486;-77